createdAt,value
2023-03-04T00:00:00.101Z,62528.39
2023-03-04T00:01:03.283Z,62532.74
2023-03-04T00:02:05.497Z,62538.03
2023-03-04T00:03:07.463Z,62538.03
2023-03-04T00:04:09.923Z,62530.55
2023-03-04T00:05:12.455Z,62537.08
2023-03-04T00:06:15.098Z,62529.88
2023-03-04T00:07:17.167Z,62531.65
2023-03-04T00:08:19.155Z,62533.28
2023-03-04T00:09:21.402Z,62533.55
2023-03-04T00:10:23.390Z,62524.71
2023-03-04T00:11:26.323Z,62530.43
2023-03-04T00:12:28.218Z,62515.76
2023-03-04T00:13:31.112Z,62524.71
2023-03-04T00:14:33.001Z,62533.96
2023-03-04T00:15:34.939Z,62532.33
2023-03-04T00:16:37.152Z,62527.44
2023-03-04T00:17:39.491Z,62505.71
2023-03-04T00:18:41.492Z,62521.19
2023-03-04T00:19:43.366Z,62511.96
2023-03-04T00:20:45.481Z,62514.13
2023-03-04T00:21:47.371Z,62527.30
2023-03-04T00:22:49.370Z,62536.00
2023-03-04T00:23:51.404Z,62532.07
2023-03-04T00:24:53.291Z,62534.23
2023-03-04T00:25:55.165Z,62530.55
2023-03-04T00:26:57.141Z,62542.92
2023-03-04T00:27:59.384Z,62545.09
2023-03-04T00:29:01.441Z,62541.97
2023-03-04T00:30:05.914Z,62540.87
2023-03-04T00:31:09.222Z,62497.56
2023-03-04T00:32:11.337Z,62511.02
2023-03-04T00:33:13.348Z,62523.91
2023-03-04T00:34:15.223Z,62505.32
2023-03-04T00:35:18.579Z,62520.12
2023-03-04T00:36:20.855Z,62523.38
2023-03-04T00:37:23.869Z,62531.39
2023-03-04T00:38:26.301Z,62510.87
2023-03-04T00:39:28.372Z,62522.43
2023-03-04T00:40:30.552Z,62530.97
2023-03-04T00:41:32.429Z,62530.43
2023-03-04T00:42:34.312Z,62523.38
2023-03-04T00:43:36.202Z,62519.97
2023-03-04T00:44:38.785Z,62506.54
2023-03-04T00:45:41.491Z,62510.60
2023-03-04T00:46:43.609Z,62497.98
2023-03-04T00:47:45.503Z,62506.66
2023-03-04T00:48:47.372Z,62513.59
2023-03-04T00:49:49.559Z,62508.17
2023-03-04T00:50:51.662Z,62489.82
2023-03-04T00:51:54.290Z,62505.03
2023-03-04T00:52:56.205Z,62516.30
2023-03-04T00:54:00.689Z,62510.60
2023-03-04T00:55:02.332Z,62517.93
2023-03-04T00:56:05.665Z,62502.72
2023-03-04T00:57:07.954Z,62494.04
2023-03-04T00:58:09.973Z,62505.98
2023-03-04T00:59:12.159Z,62492.69
2023-03-04T01:00:15.189Z,62488.87
2023-03-04T01:01:17.216Z,62488.87
2023-03-04T01:02:19.379Z,62494.59
2023-03-04T01:03:21.512Z,62494.86
2023-03-04T01:04:23.507Z,62490.78
2023-03-04T01:05:25.753Z,62502.72
2023-03-04T01:06:28.175Z,62506.54
2023-03-04T01:07:30.136Z,62516.44
2023-03-04T01:08:32.017Z,62513.72
2023-03-04T01:09:35.651Z,62509.80
2023-03-04T01:10:37.865Z,62507.75
2023-03-04T01:11:39.881Z,62508.29
2023-03-04T01:12:42.451Z,62505.71
2023-03-04T01:13:46.447Z,62493.23
2023-03-04T01:14:48.502Z,62510.60
2023-03-04T01:15:50.428Z,62510.60
2023-03-04T01:16:53.754Z,62505.18
2023-03-04T01:17:56.711Z,62509.24
2023-03-04T01:18:58.840Z,62516.44
2023-03-04T01:20:01.107Z,62498.80
2023-03-04T01:21:04.005Z,62506.66
2023-03-04T01:22:06.009Z,62486.71
2023-03-04T01:23:07.900Z,62483.04
2023-03-04T01:24:12.031Z,62491.60
2023-03-04T01:25:14.083Z,62498.12
2023-03-04T01:26:17.759Z,62492.69
2023-03-04T01:27:19.701Z,62483.45
2023-03-04T01:28:21.611Z,62500.02
2023-03-04T01:29:24.229Z,62503.67
2023-03-04T01:30:26.455Z,62502.33
2023-03-04T01:31:28.353Z,62502.33
2023-03-04T01:32:30.301Z,62508.85
2023-03-04T01:33:35.008Z,62512.09
2023-03-04T01:34:37.027Z,62499.75
2023-03-04T01:35:39.098Z,62507.07
2023-03-04T01:36:41.456Z,62481.55
2023-03-04T01:37:44.244Z,62496.35
2023-03-04T01:38:46.137Z,62508.71
2023-03-04T01:39:48.271Z,62502.33
2023-03-04T01:40:51.216Z,62510.75
2023-03-04T01:41:53.514Z,62503.54
2023-03-04T01:42:55.681Z,62488.87
2023-03-04T01:43:59.901Z,62498.93
2023-03-04T01:45:03.461Z,62501.23
2023-03-04T01:46:06.625Z,62492.14
2023-03-04T01:47:09.630Z,62504.91
2023-03-04T01:48:15.331Z,62503.01
2023-03-04T01:49:18.006Z,62498.39
2023-03-04T01:50:29.980Z,62488.20
2023-03-04T01:51:32.748Z,62489.70
2023-03-04T01:52:37.297Z,62497.30
2023-03-04T01:53:39.677Z,62500.29
2023-03-04T01:54:41.752Z,62511.82
2023-03-04T01:55:43.638Z,62506.54
2023-03-04T01:56:47.905Z,62502.72
2023-03-04T01:57:52.621Z,62510.34
2023-03-04T01:59:10.822Z,62500.55
2023-03-04T02:00:26.048Z,62506.54
2023-03-04T02:01:28.895Z,62501.09
2023-03-04T02:02:30.857Z,62500.02
2023-03-04T02:03:32.934Z,62489.29
2023-03-04T02:04:35.197Z,62489.15
2023-03-04T02:05:40.640Z,62486.86
2023-03-04T02:06:44.155Z,62485.35
2023-03-04T02:07:46.241Z,62493.50
2023-03-04T02:08:48.228Z,62485.49
2023-03-04T02:09:50.205Z,62481.02
2023-03-04T02:10:54.211Z,62467.57
2023-03-04T02:11:57.297Z,62475.18
2023-03-04T02:13:00.684Z,62463.92
2023-03-04T02:14:03.482Z,62479.93
2023-03-04T02:15:07.794Z,62483.18
2023-03-04T02:16:11.484Z,62471.09
2023-03-04T02:17:14.355Z,62476.93
2023-03-04T02:18:21.341Z,62480.73
2023-03-04T02:19:42.369Z,62489.70
2023-03-04T02:21:09.199Z,62475.86
2023-03-04T02:22:11.231Z,62479.93
2023-03-04T02:23:22.750Z,62470.97
2023-03-04T02:24:32.540Z,62463.36
2023-03-04T02:25:41.038Z,62479.93
2023-03-04T02:26:45.004Z,62481.14
2023-03-04T02:27:47.235Z,62484.67
2023-03-04T02:28:51.747Z,62472.60
2023-03-04T02:29:54.061Z,62484.82
2023-03-04T02:30:56.060Z,62471.51
2023-03-04T02:31:58.263Z,62455.09
2023-03-04T02:33:00.463Z,62442.74
2023-03-04T02:35:17.655Z,62475.72
2023-03-04T02:36:21.492Z,62471.92
2023-03-04T02:37:24.493Z,62465.82
2023-03-04T02:38:26.900Z,62470.41
2023-03-04T02:39:35.328Z,62451.69
2023-03-04T02:40:40.350Z,62468.12
2023-03-04T02:41:44.595Z,62454.14
2023-03-04T02:42:47.571Z,62455.36
2023-03-04T02:43:52.809Z,62465.26
2023-03-04T02:45:00.960Z,62445.59
2023-03-04T02:46:03.326Z,62458.35
2023-03-04T02:47:08.380Z,62456.16
2023-03-04T02:48:11.691Z,62463.10
2023-03-04T02:49:15.116Z,62465.14
2023-03-04T02:50:17.701Z,62461.20
2023-03-04T02:51:20.917Z,62454.55
2023-03-04T02:52:26.033Z,62461.47
2023-03-04T02:53:28.052Z,62449.25
2023-03-04T02:54:30.655Z,62462.00
2023-03-04T02:55:33.450Z,62465.82
2023-03-04T02:56:36.318Z,62464.31
2023-03-04T02:57:38.186Z,62471.24
2023-03-04T02:58:40.093Z,62471.24
2023-03-04T02:59:42.789Z,62464.73
2023-03-04T03:00:45.043Z,62471.78
2023-03-04T03:01:48.588Z,62450.62
2023-03-04T03:02:51.843Z,62461.47
2023-03-04T03:03:53.905Z,62457.14
2023-03-04T03:04:56.124Z,62437.17
2023-03-04T03:05:58.138Z,62440.02
2023-03-04T03:07:00.221Z,62454.55
2023-03-04T03:08:02.499Z,62448.72
2023-03-04T03:09:05.676Z,62441.11
2023-03-04T03:10:09.477Z,62465.53
2023-03-04T03:11:11.591Z,62462.14
2023-03-04T03:12:13.473Z,62458.35
2023-03-04T03:13:15.347Z,62450.21
2023-03-04T03:14:17.410Z,62453.20
2023-03-04T03:15:20.361Z,62450.62
2023-03-04T03:16:23.002Z,62457.67
2023-03-04T03:17:25.315Z,62452.79
2023-03-04T03:18:27.205Z,62433.52
2023-03-04T03:19:29.258Z,62449.79
2023-03-04T03:20:31.441Z,62452.64
2023-03-04T03:21:33.630Z,62450.74
2023-03-04T03:22:35.668Z,62464.19
2023-03-04T03:23:38.336Z,62456.72
2023-03-04T03:24:40.542Z,62454.55
2023-03-04T03:25:42.439Z,62473.95
2023-03-04T03:26:45.508Z,62464.19
2023-03-04T03:27:47.416Z,62458.21
2023-03-04T03:28:50.316Z,62462.29
2023-03-04T03:29:52.489Z,62457.40
2023-03-04T03:30:54.472Z,62457.40
2023-03-04T03:31:56.599Z,62455.63
2023-03-04T03:33:00.408Z,62462.00
2023-03-04T03:34:02.342Z,62450.74
2023-03-04T03:35:07.138Z,62447.09
2023-03-04T03:36:09.706Z,62443.57
2023-03-04T03:37:12.153Z,62451.30
2023-03-04T03:38:14.056Z,62452.93
2023-03-04T03:39:15.947Z,62463.77
2023-03-04T03:40:19.381Z,62462.56
2023-03-04T03:41:21.313Z,62459.30
2023-03-04T03:42:24.140Z,62446.41
2023-03-04T03:43:26.715Z,62461.05
2023-03-04T03:44:29.555Z,62447.62
2023-03-04T03:45:33.369Z,62456.31
2023-03-04T03:46:35.505Z,62460.37
2023-03-04T03:47:37.606Z,62456.84
2023-03-04T03:48:39.504Z,62454.95
2023-03-04T03:49:41.615Z,62455.51
2023-03-04T03:50:43.892Z,62469.20
2023-03-04T03:51:45.910Z,62473.55
2023-03-04T03:52:47.778Z,62474.77
2023-03-04T03:53:49.682Z,62482.77
2023-03-04T03:54:51.771Z,62474.09
2023-03-04T03:55:54.380Z,62470.15
2023-03-04T03:56:56.499Z,62473.00
2023-03-04T03:57:58.777Z,62478.15
2023-03-04T03:59:01.535Z,62467.98
2023-03-04T04:00:06.086Z,62465.40
2023-03-04T04:01:08.030Z,62472.32
2023-03-04T04:02:10.216Z,62461.73
2023-03-04T04:03:15.784Z,62468.52
2023-03-04T04:04:17.739Z,62471.24
2023-03-04T04:05:20.316Z,62483.60
2023-03-04T04:06:23.096Z,62470.41
2023-03-04T04:07:24.971Z,62469.61
2023-03-04T04:08:27.694Z,62457.26
2023-03-04T04:09:30.494Z,62461.05
2023-03-04T04:10:32.646Z,62477.76
2023-03-04T04:11:36.134Z,62487.52
2023-03-04T04:12:39.248Z,62488.61
2023-03-04T04:13:43.412Z,62490.92
2023-03-04T04:14:45.726Z,62490.78
2023-03-04T04:15:47.649Z,62483.18
2023-03-04T04:16:49.918Z,62489.70
2023-03-04T04:17:52.014Z,62479.66
2023-03-04T04:18:54.714Z,62483.04
2023-03-04T04:19:56.720Z,62494.04
2023-03-04T04:20:58.733Z,62497.30
2023-03-04T04:22:01.960Z,62491.87
2023-03-04T04:23:03.954Z,62467.98
2023-03-04T04:24:05.831Z,62472.46
2023-03-04T04:25:08.234Z,62461.05
2023-03-04T04:26:11.131Z,62481.02
2023-03-04T04:27:13.064Z,62485.49
2023-03-04T04:28:15.252Z,62490.38
2023-03-04T04:29:17.364Z,62487.52
2023-03-04T04:30:20.745Z,62484.40
2023-03-04T04:31:22.770Z,62476.13
2023-03-04T04:32:24.833Z,62475.04
2023-03-04T04:33:27.480Z,62487.52
2023-03-04T04:34:29.737Z,62479.39
2023-03-04T04:35:33.701Z,62467.98
2023-03-04T04:36:36.116Z,62474.62
2023-03-04T04:37:38.155Z,62494.04
2023-03-04T04:38:40.097Z,62494.04
2023-03-04T04:39:42.115Z,62482.50
2023-03-04T04:40:44.417Z,62475.45
2023-03-04T04:41:46.674Z,62481.55
2023-03-04T04:42:48.657Z,62495.13
2023-03-04T04:43:51.593Z,62489.43
2023-03-04T04:44:53.951Z,62501.91
2023-03-04T04:45:58.894Z,62488.61
2023-03-04T04:47:01.175Z,62500.14
2023-03-04T04:48:03.489Z,62508.85
2023-03-04T04:49:05.911Z,62514.28
2023-03-04T04:50:09.615Z,62510.19
2023-03-04T04:51:11.708Z,62522.55
2023-03-04T04:52:13.739Z,62506.80
2023-03-04T04:53:16.031Z,62514.81
2023-03-04T04:54:18.118Z,62512.64
2023-03-04T04:55:20.115Z,62506.66
2023-03-04T04:56:26.332Z,62508.29
2023-03-04T04:57:28.328Z,62509.38
2023-03-04T04:58:30.196Z,62517.93
2023-03-04T04:59:32.189Z,62516.86
2023-03-04T05:00:34.600Z,62527.17
2023-03-04T05:01:36.731Z,62522.13
2023-03-04T05:02:38.692Z,62514.95
2023-03-04T05:03:41.480Z,62512.09
2023-03-04T05:04:43.726Z,62521.87
2023-03-04T05:05:45.601Z,62524.71
2023-03-04T05:06:47.678Z,62532.74
2023-03-04T05:07:49.676Z,62518.61
2023-03-04T05:08:51.940Z,62529.48
2023-03-04T05:09:53.950Z,62520.65
2023-03-04T05:10:56.139Z,62536.54
2023-03-04T05:11:58.395Z,62531.79
2023-03-04T05:13:00.387Z,62524.05
2023-03-04T05:14:02.665Z,62542.92
2023-03-04T05:15:05.670Z,62508.97
2023-03-04T05:16:08.417Z,62520.65
2023-03-04T05:17:10.456Z,62513.18
2023-03-04T05:18:12.482Z,62531.23
2023-03-04T05:19:14.379Z,62524.86
2023-03-04T05:20:17.171Z,62531.51
2023-03-04T05:21:19.072Z,62539.66
2023-03-04T05:22:21.149Z,62545.77
2023-03-04T05:23:24.311Z,62544.14
2023-03-04T05:24:26.212Z,62556.64
2023-03-04T05:25:28.516Z,62566.82
2023-03-04T05:26:30.606Z,62566.41
2023-03-04T05:27:33.877Z,62545.09
2023-03-04T05:28:36.223Z,62544.14
2023-03-04T05:29:38.162Z,62538.59
2023-03-04T05:30:41.831Z,62551.07
2023-03-04T05:31:44.222Z,62565.75
2023-03-04T05:32:46.298Z,62567.50
2023-03-04T05:33:48.384Z,62565.46
2023-03-04T05:34:52.785Z,62568.99
2023-03-04T05:35:55.788Z,62561.66
2023-03-04T05:36:58.133Z,62572.93
2023-03-04T05:38:00.567Z,62573.61
2023-03-04T05:39:03.752Z,62572.55
2023-03-04T05:40:07.556Z,62576.75
2023-03-04T05:41:09.565Z,62577.29
2023-03-04T05:42:11.457Z,62586.40
2023-03-04T05:43:13.968Z,62590.73
2023-03-04T05:44:16.139Z,62581.62
2023-03-04T05:45:18.355Z,62593.87
2023-03-04T05:46:20.695Z,62600.94
2023-03-04T05:47:22.820Z,62596.18
2023-03-04T05:48:24.975Z,62576.75
2023-03-04T05:49:26.867Z,62574.71
2023-03-04T05:50:29.742Z,62558.95
2023-03-04T05:51:31.818Z,62548.63
2023-03-04T05:52:33.890Z,62575.52
2023-03-04T05:53:37.569Z,62561.39
2023-03-04T05:54:39.720Z,62546.72
2023-03-04T05:55:45.367Z,62570.77
2023-03-04T05:56:47.590Z,62564.38
2023-03-04T05:57:49.630Z,62566.82
2023-03-04T05:58:51.678Z,62576.34
2023-03-04T05:59:53.794Z,62578.92
2023-03-04T06:01:01.953Z,62569.67
2023-03-04T06:02:03.985Z,62578.23
2023-03-04T06:03:06.190Z,62580.41
2023-03-04T06:04:08.137Z,62572.55
2023-03-04T06:05:13.216Z,62545.09
2023-03-04T06:06:15.957Z,62570.09
2023-03-04T06:07:17.944Z,62587.47
2023-03-04T06:08:21.467Z,62583.93
2023-03-04T06:09:24.181Z,62568.72
2023-03-04T06:10:26.401Z,62570.77
2023-03-04T06:11:28.586Z,62580.14
2023-03-04T06:12:30.563Z,62578.38
2023-03-04T06:13:33.883Z,62601.88
2023-03-04T06:14:36.075Z,62602.30
2023-03-04T06:15:39.445Z,62592.63
2023-03-04T06:16:41.602Z,62588.83
2023-03-04T06:17:43.518Z,62610.43
2023-03-04T06:18:46.628Z,62623.76
2023-03-04T06:19:48.667Z,62619.01
2023-03-04T06:20:51.054Z,62603.51
2023-03-04T06:21:52.963Z,62619.68
2023-03-04T06:22:54.942Z,62610.57
2023-03-04T06:23:56.930Z,62608.68
2023-03-04T06:24:58.824Z,62621.86
2023-03-04T06:26:01.392Z,62630.55
2023-03-04T06:27:03.777Z,62642.93
2023-03-04T06:28:06.245Z,62630.96
2023-03-04T06:29:09.018Z,62620.22
2023-03-04T06:30:12.345Z,62627.96
2023-03-04T06:31:15.225Z,62619.15
2023-03-04T06:32:18.611Z,62619.15
2023-03-04T06:33:21.758Z,62633.70
2023-03-04T06:34:23.763Z,62639.93
2023-03-04T06:35:25.776Z,62617.91
2023-03-04T06:36:28.311Z,62621.58
2023-03-04T06:37:30.212Z,62622.53
2023-03-04T06:38:32.861Z,62639.93
2023-03-04T06:39:34.787Z,62649.71
2023-03-04T06:40:38.054Z,62625.26
2023-03-04T06:41:40.443Z,62628.80
2023-03-04T06:42:43.019Z,62627.70
2023-03-04T06:43:45.023Z,62636.66
2023-03-04T06:44:49.469Z,62620.10
2023-03-04T06:45:52.244Z,62627.29
2023-03-04T06:46:54.599Z,62612.20
2023-03-04T06:47:56.571Z,62634.23
2023-03-04T06:48:58.487Z,62639.12
2023-03-04T06:50:00.752Z,62640.62
2023-03-04T06:51:10.850Z,62641.97
2023-03-04T06:52:12.974Z,62634.91
2023-03-04T06:53:15.959Z,62656.25
2023-03-04T06:54:18.548Z,62644.56
2023-03-04T06:55:20.600Z,62639.25
2023-03-04T06:56:23.030Z,62660.46
2023-03-04T06:57:25.063Z,62662.77
2023-03-04T06:58:26.971Z,62681.55
2023-03-04T06:59:28.999Z,62682.50
2023-03-04T07:00:31.710Z,62654.07
2023-03-04T07:01:34.011Z,62663.59
2023-03-04T07:02:36.410Z,62671.75
2023-03-04T07:03:41.054Z,62674.06
2023-03-04T07:04:43.251Z,62666.32
2023-03-04T07:05:45.333Z,62657.74
2023-03-04T07:06:47.895Z,62667.53
2023-03-04T07:07:49.872Z,62691.20
2023-03-04T07:08:52.436Z,62679.91
2023-03-04T07:09:54.354Z,62685.77
2023-03-04T07:10:56.476Z,62665.22
2023-03-04T07:11:59.122Z,62684.25
2023-03-04T07:13:01.359Z,62671.89
2023-03-04T07:14:03.512Z,62683.18
2023-03-04T07:15:06.591Z,62686.57
2023-03-04T07:16:13.567Z,62706.58
2023-03-04T07:17:15.749Z,62700.30
2023-03-04T07:18:17.759Z,62720.18
2023-03-04T07:19:20.263Z,62715.00
2023-03-04T07:20:22.572Z,62712.69
2023-03-04T07:21:25.018Z,62733.90
2023-03-04T07:22:27.120Z,62693.37
2023-03-04T07:23:30.281Z,62707.37
2023-03-04T07:24:32.448Z,62711.06
2023-03-04T07:25:35.645Z,62703.01
2023-03-04T07:26:38.322Z,62706.28
2023-03-04T07:27:40.346Z,62726.70
2023-03-04T07:28:42.649Z,62715.28
2023-03-04T07:29:44.652Z,62721.93
2023-03-04T07:30:46.863Z,62726.97
2023-03-04T07:31:49.210Z,62745.76
2023-03-04T07:32:54.440Z,62724.11
2023-03-04T07:35:15.854Z,62763.17
2023-03-04T07:36:19.414Z,62757.45
2023-03-04T07:37:21.550Z,62756.64
2023-03-04T07:38:25.869Z,62782.22
2023-03-04T07:39:28.976Z,62785.07
2023-03-04T07:40:31.366Z,62801.84
2023-03-04T07:41:34.187Z,62767.66
2023-03-04T07:42:36.475Z,62788.34
2023-03-04T07:43:38.716Z,62804.43
2023-03-04T07:44:41.149Z,62803.73
2023-03-04T07:45:43.343Z,62760.70
2023-03-04T07:46:45.444Z,62762.63
2023-03-04T07:47:48.061Z,62780.73
2023-03-04T07:48:50.882Z,62757.45
2023-03-04T07:49:53.052Z,62747.09
2023-03-04T07:51:13.620Z,62745.88
2023-03-04T07:52:16.045Z,62760.58
2023-03-04T07:53:17.965Z,62765.88
2023-03-04T07:54:19.965Z,62779.09
2023-03-04T07:55:21.840Z,62774.31
2023-03-04T07:56:27.503Z,62789.55
2023-03-04T07:57:29.416Z,62805.76
2023-03-04T07:58:31.902Z,62795.84
2023-03-04T07:59:34.077Z,62803.17
2023-03-04T08:00:36.108Z,62823.88
2023-03-04T08:01:38.435Z,62845.12
2023-03-04T08:02:41.974Z,62801.16
2023-03-04T08:03:45.736Z,62811.22
2023-03-04T08:04:47.855Z,62799.78
2023-03-04T08:05:50.334Z,62824.56
2023-03-04T08:06:52.535Z,62824.28
2023-03-04T08:07:54.400Z,62792.71
2023-03-04T08:08:59.336Z,62787.92
2023-03-04T08:10:01.881Z,62785.49
2023-03-04T08:11:10.108Z,62761.26
2023-03-04T08:12:12.257Z,62784.54
2023-03-04T08:13:14.368Z,62791.61
2023-03-04T08:14:16.395Z,62802.09
2023-03-04T08:15:19.598Z,62801.28
2023-03-04T08:16:24.004Z,62812.72
2023-03-04T08:17:25.998Z,62817.74
2023-03-04T08:18:28.352Z,62781.41
2023-03-04T08:19:30.489Z,62773.09
2023-03-04T08:20:32.556Z,62790.11
2023-03-04T08:21:34.448Z,62793.11
2023-03-04T08:22:36.328Z,62789.44
2023-03-04T08:23:39.617Z,62787.27
2023-03-04T08:24:41.620Z,62816.41
2023-03-04T08:25:45.036Z,62796.09
2023-03-04T08:26:49.349Z,62796.37
2023-03-04T08:27:52.116Z,62813.26
2023-03-04T08:28:55.168Z,62823.21
2023-03-04T08:29:57.254Z,62839.28
2023-03-04T08:30:59.971Z,62844.58
2023-03-04T08:32:02.034Z,62848.67
2023-03-04T08:33:04.372Z,62836.27
2023-03-04T08:34:06.814Z,62824.28
2023-03-04T08:35:09.123Z,62809.99
2023-03-04T08:36:12.904Z,62824.96
2023-03-04T08:37:15.004Z,62804.27
2023-03-04T08:38:17.305Z,62808.35
2023-03-04T08:39:19.581Z,62805.50
2023-03-04T08:40:22.512Z,62766.02
2023-03-04T08:41:24.785Z,62796.37
2023-03-04T08:42:27.034Z,62809.03
2023-03-04T08:43:29.937Z,62786.43
2023-03-04T08:44:31.947Z,62804.68
2023-03-04T08:45:33.875Z,62797.47
2023-03-04T08:47:51.227Z,62795.02
2023-03-04T08:48:53.154Z,62797.61
2023-03-04T08:49:55.258Z,62777.58
2023-03-04T08:50:57.747Z,62780.05
2023-03-04T08:51:59.640Z,62775.95
2023-03-04T08:53:02.463Z,62813.65
2023-03-04T08:54:05.975Z,62798.82
2023-03-04T08:55:08.340Z,62807.28
2023-03-04T08:56:12.695Z,62803.17
2023-03-04T08:57:14.979Z,62810.38
2023-03-04T08:58:17.647Z,62783.86
2023-03-04T08:59:19.744Z,62792.71
2023-03-04T09:00:22.236Z,62797.05
2023-03-04T09:01:25.507Z,62801.70
2023-03-04T09:02:28.913Z,62789.55
2023-03-04T09:03:31.195Z,62794.34
2023-03-04T09:04:33.741Z,62802.51
2023-03-04T09:05:36.097Z,62788.90
2023-03-04T09:06:40.524Z,62792.71
2023-03-04T09:07:42.397Z,62807.82
2023-03-04T09:08:45.348Z,62816.25
2023-03-04T09:09:47.423Z,62821.69
2023-03-04T09:10:52.378Z,62808.63
2023-03-04T09:11:56.114Z,62823.88
2023-03-04T09:12:58.229Z,62811.62
2023-03-04T09:14:00.372Z,62809.45
2023-03-04T09:15:11.226Z,62803.05
2023-03-04T09:16:12.978Z,62816.25
2023-03-04T09:17:14.953Z,62790.11
2023-03-04T09:18:19.028Z,62791.19
2023-03-04T09:19:20.953Z,62812.72
2023-03-04T09:20:23.027Z,62806.44
2023-03-04T09:21:25.292Z,62826.59
2023-03-04T09:22:27.785Z,62837.50
2023-03-04T09:23:31.187Z,62831.08
2023-03-04T09:24:33.094Z,62815.03
2023-03-04T09:25:36.363Z,62804.68
2023-03-04T09:26:38.511Z,62821.01
2023-03-04T09:27:41.011Z,62831.24
2023-03-04T09:28:43.049Z,62814.49
2023-03-04T09:29:44.913Z,62831.92
2023-03-04T09:30:47.388Z,62814.89
2023-03-04T09:31:50.931Z,62788.34
2023-03-04T09:32:53.229Z,62788.34
2023-03-04T09:33:57.491Z,62784.11
2023-03-04T09:34:59.461Z,62811.90
2023-03-04T09:36:01.433Z,62826.47
2023-03-04T09:37:03.858Z,62823.21
2023-03-04T09:38:06.935Z,62815.57
2023-03-04T09:39:10.138Z,62827.15
2023-03-04T09:40:15.950Z,62843.90
2023-03-04T09:42:33.008Z,62815.29
2023-03-04T09:43:38.765Z,62804.80
2023-03-04T09:44:43.468Z,62790.11
2023-03-04T09:45:56.762Z,62803.73
2023-03-04T09:47:05.804Z,62827.15
2023-03-04T09:48:11.493Z,62839.67
2023-03-04T09:49:14.498Z,62814.07
2023-03-04T09:50:19.414Z,62805.76
2023-03-04T09:51:24.623Z,62815.03
2023-03-04T09:52:36.231Z,62821.41
2023-03-04T09:53:44.491Z,62830.14
2023-03-04T09:55:06.934Z,62803.47
2023-03-04T09:56:10.781Z,62817.74
2023-03-04T09:57:48.654Z,62816.13
2023-03-04T09:59:00.120Z,62829.74
2023-03-04T10:00:03.936Z,62833.13
2023-03-04T10:01:18.814Z,62793.78
2023-03-04T10:02:30.771Z,62821.97
2023-03-04T10:03:48.814Z,62821.69
2023-03-04T10:04:53.987Z,62797.19
2023-03-04T10:05:59.960Z,62801.16
2023-03-04T10:07:03.083Z,62800.88
2023-03-04T10:08:23.804Z,62786.71
2023-03-04T10:09:41.628Z,62785.07
2023-03-04T10:10:45.145Z,62808.35
2023-03-04T10:11:51.046Z,62802.09
2023-03-04T10:12:54.572Z,62785.07
2023-03-04T10:14:20.215Z,62810.13
2023-03-04T10:15:28.697Z,62810.13
2023-03-04T10:16:37.535Z,62810.27
2023-03-04T10:17:43.252Z,62793.11
2023-03-04T10:18:57.699Z,62805.64
2023-03-04T10:20:28.005Z,62817.09
2023-03-04T10:21:34.166Z,62799.11
2023-03-04T10:22:45.921Z,62795.13
2023-03-04T10:23:48.744Z,62806.57
2023-03-04T10:24:57.749Z,62793.38
2023-03-04T10:26:04.386Z,62809.71
2023-03-04T10:27:10.061Z,62799.78
2023-03-04T10:28:17.610Z,62783.57
2023-03-04T10:29:23.150Z,62811.62
2023-03-04T10:30:55.166Z,62816.66
2023-03-04T10:31:57.234Z,62816.66
2023-03-04T10:32:59.291Z,62804.12
2023-03-04T10:34:02.950Z,62803.59
2023-03-04T10:35:08.437Z,62795.55
2023-03-04T10:36:32.566Z,62798.14
2023-03-04T10:37:50.040Z,62804.68
2023-03-04T10:39:13.921Z,62779.49
2023-03-04T10:40:24.541Z,62782.48
2023-03-04T10:41:29.406Z,62798.01
2023-03-04T10:42:33.636Z,62787.27
2023-03-04T10:43:36.504Z,62787.27
2023-03-04T10:44:42.168Z,62794.88
2023-03-04T10:45:45.587Z,62792.29
2023-03-04T10:46:48.997Z,62797.47
2023-03-04T10:47:53.422Z,62798.01
2023-03-04T10:48:55.952Z,62758.81
2023-03-04T10:50:00.882Z,62754.18
2023-03-04T10:51:25.151Z,62769.15
2023-03-04T10:52:42.322Z,62771.88
2023-03-04T10:53:48.344Z,62774.73
2023-03-04T10:54:54.062Z,62774.05
2023-03-04T10:55:56.193Z,62779.49
2023-03-04T10:57:08.193Z,62778.54
2023-03-04T10:59:25.183Z,62790.51
2023-03-04T11:00:33.814Z,62756.64
2023-03-04T11:01:36.763Z,62755.68
2023-03-04T11:02:38.889Z,62747.65
2023-03-04T11:03:44.718Z,62777.86
2023-03-04T11:04:53.648Z,62794.34
2023-03-04T11:06:21.781Z,62775.15
2023-03-04T11:07:26.417Z,62782.48
2023-03-04T11:08:29.598Z,62768.75
2023-03-04T11:09:31.499Z,62793.24
2023-03-04T11:10:40.903Z,62813.68
2023-03-04T11:11:43.838Z,62819.93
2023-03-04T11:13:06.677Z,62824.56
2023-03-04T11:14:15.847Z,62812.72
2023-03-04T11:15:23.464Z,62849.77
2023-03-04T11:16:28.861Z,62865.02
2023-03-04T11:17:43.882Z,62827.15
2023-03-04T11:18:55.059Z,62844.98
2023-03-04T11:20:06.514Z,62876.17
2023-03-04T11:21:10.206Z,62872.89
2023-03-04T11:22:15.901Z,62890.89
2023-03-04T11:23:21.603Z,62916.37
2023-03-04T11:24:29.802Z,62917.61
2023-03-04T11:25:38.706Z,62926.32
2023-03-04T11:26:45.038Z,62906.57
2023-03-04T11:27:50.804Z,62917.61
2023-03-04T11:28:59.328Z,62914.73
2023-03-04T11:30:10.908Z,62889.25
2023-03-04T11:31:22.958Z,62914.19
2023-03-04T11:32:32.403Z,62889.67
2023-03-04T11:33:44.201Z,62870.46
2023-03-04T11:35:06.228Z,62866.37
2023-03-04T11:36:30.294Z,62883.55
2023-03-04T11:37:42.569Z,62867.45
2023-03-04T11:38:48.364Z,62875.09
2023-03-04T11:40:00.209Z,62867.87
2023-03-04T11:41:27.259Z,62866.78
2023-03-04T11:42:36.190Z,62869.37
2023-03-04T11:43:41.142Z,62848.25
2023-03-04T11:44:43.601Z,62841.17
2023-03-04T11:46:10.834Z,62855.46
2023-03-04T11:47:42.468Z,62817.34
2023-03-04T11:48:53.798Z,62834.77
2023-03-04T11:50:16.269Z,62856.02
2023-03-04T11:51:40.636Z,62857.10
2023-03-04T11:53:07.096Z,62861.21
2023-03-04T11:54:18.758Z,62855.89
2023-03-04T11:55:45.656Z,62866.37
2023-03-04T11:57:17.536Z,62877.13
2023-03-04T11:59:35.140Z,62844.02
2023-03-04T12:00:53.567Z,62827.15
2023-03-04T12:02:05.193Z,62816.66
2023-03-04T12:03:18.487Z,62821.43
2023-03-04T12:04:24.391Z,62848.25
2023-03-04T12:05:56.361Z,62855.89
2023-03-04T12:07:28.336Z,62854.39
2023-03-04T12:08:55.874Z,62849.34
2023-03-04T12:10:18.567Z,62838.04
2023-03-04T12:11:40.929Z,62827.69
2023-03-04T12:13:05.107Z,62807.95
2023-03-04T12:14:23.160Z,62823.74
2023-03-04T12:15:32.188Z,62817.09
2023-03-04T12:16:40.850Z,62803.59
2023-03-04T12:17:49.425Z,62800.32
2023-03-04T12:19:04.482Z,62785.75
2023-03-04T12:20:23.024Z,62781.94
2023-03-04T12:21:34.772Z,62791.19
2023-03-04T12:22:52.862Z,62801.54
2023-03-04T12:24:15.885Z,62786.31
2023-03-04T12:25:28.543Z,62803.17
2023-03-04T12:26:52.598Z,62796.09
2023-03-04T12:28:10.067Z,62818.42
2023-03-04T12:29:32.414Z,62807.28
2023-03-04T12:30:47.610Z,62787.92
2023-03-04T12:31:56.092Z,62792.71
2023-03-04T12:33:14.287Z,62795.41
2023-03-04T12:34:35.217Z,62807.95
2023-03-04T12:35:44.148Z,62806.86
2023-03-04T12:37:17.065Z,62821.69
2023-03-04T12:38:28.433Z,62809.71
2023-03-04T12:39:34.102Z,62808.07
2023-03-04T12:40:48.823Z,62817.74
2023-03-04T12:42:09.488Z,62802.21
2023-03-04T12:43:48.671Z,62818.98
2023-03-04T12:45:14.696Z,62790.11
2023-03-04T12:46:42.248Z,62804.80
2023-03-04T12:47:58.433Z,62809.45
2023-03-04T12:49:23.722Z,62824.96
2023-03-04T12:50:32.486Z,62825.24